Terminal Aerodrome Forecast
Issued by NWS Green Bay, WI

Home | Current Version | Previous Version | Graphics & Text | Print | Product List | Glossary On
Versions: 1 2 3 4 5 6 7 8 9 10 11 12 13 14 15 16 17 18 19 20 21 22 23
000
FTUS43 KGRB 210540
TAFGRB
TAF
KGRB 210540Z 2106/2206 00000KT P6SM SCT040 BKN120
     FM210900 03007KT 6SM BR SCT005 BKN040
      TEMPO 2109/2113 1SM BR BKN005
     FM211400 05009KT P6SM BKN008
     FM211500 11006KT P6SM SCT008 BKN020
     FM212200 11006KT P6SM BKN035
     FM220100 12005KT P6SM FEW040 SCT120=

USA.gov is the U.S. government's official web portal to all federal, state and local government web resources and services.